createdAt,value
2023-02-03T05:03:25.004Z,6.15
2023-02-03T05:07:28.731Z,6.22
2023-02-03T05:11:31.613Z,6.30
2023-02-03T05:15:34.104Z,6.05
2023-02-03T05:19:37.912Z,6.18
2023-02-03T05:23:40.465Z,6.22
2023-02-03T05:27:43.338Z,5.85
2023-02-03T05:31:45.934Z,5.70
2023-02-03T05:35:49.780Z,6.20
2023-02-03T05:39:52.443Z,5.63
2023-02-03T05:43:54.900Z,6.37
2023-02-03T05:47:57.405Z,5.85
2023-02-03T05:52:01.469Z,5.63
2023-02-03T05:56:04.044Z,6.03
2023-02-03T06:00:08.215Z,6.57
2023-02-03T06:04:14.202Z,5.65
2023-02-03T06:08:18.020Z,5.47
2023-02-03T06:12:20.533Z,5.95
2023-02-03T06:16:24.849Z,5.55
2023-02-03T06:20:27.728Z,5.15
2023-02-03T06:24:31.855Z,5.35
2023-02-03T06:28:34.421Z,5.10
2023-02-03T06:32:36.909Z,5.10
2023-02-03T06:36:39.392Z,5.10
2023-02-03T06:40:43.208Z,4.95
2023-02-03T06:44:45.679Z,4.97
2023-02-03T06:48:48.132Z,4.32
2023-02-03T06:52:51.545Z,4.88
2023-02-03T06:56:55.369Z,4.10
2023-02-03T07:00:57.870Z,4.82
2023-02-03T07:05:00.859Z,4.95
2023-02-03T07:09:05.904Z,4.78
2023-02-03T07:13:09.902Z,5.20
2023-02-03T07:17:12.397Z,4.80
2023-02-03T07:21:16.140Z,5.40
2023-02-03T07:25:18.697Z,5.70
2023-02-03T07:29:22.498Z,5.40
2023-02-03T07:33:25.553Z,4.35
2023-02-03T07:37:28.186Z,4.93
2023-02-03T07:41:30.685Z,5.03
2023-02-03T07:45:34.842Z,4.50
2023-02-03T07:49:37.326Z,4.10
2023-02-03T07:53:39.837Z,4.40
2023-02-03T07:57:43.609Z,4.28
2023-02-03T08:01:47.745Z,3.90
2023-02-03T08:05:50.676Z,3.88
2023-02-03T08:09:53.138Z,3.65
2023-02-03T08:13:55.637Z,3.70
2023-02-03T08:17:59.547Z,3.33
2023-02-03T08:22:02.150Z,2.13
2023-02-03T08:26:04.841Z,2.70
2023-02-03T08:30:08.995Z,2.33
2023-02-03T08:34:12.789Z,1.80
2023-02-03T08:38:15.403Z,1.80
2023-02-03T08:42:18.109Z,1.50
2023-02-03T08:46:20.662Z,1.50
2023-02-03T08:50:24.579Z,1.38
2023-02-03T08:54:27.317Z,1.40
2023-02-03T08:58:29.784Z,1.20
2023-02-03T09:02:32.308Z,1.10
2023-02-03T09:06:37.025Z,0.90
2023-02-03T09:10:39.491Z,1.08
2023-02-03T09:14:42.211Z,1.08
2023-02-03T09:18:45.213Z,1.20
2023-02-03T09:22:49.016Z,1.20
2023-02-03T09:26:51.945Z,1.25
2023-02-03T09:30:54.514Z,1.23
2023-02-03T09:34:56.986Z,1.23
2023-02-03T09:39:01.119Z,1.38
2023-02-03T09:43:14.130Z,1.50
2023-02-03T09:47:22.096Z,1.30
2023-02-03T09:51:29.329Z,1.55
2023-02-03T09:55:40.272Z,1.30
2023-02-03T09:59:42.791Z,1.60
2023-02-03T10:03:48.852Z,1.90
2023-02-03T10:08:03.400Z,1.52
2023-02-03T10:12:44.942Z,1.80
2023-02-03T10:17:01.068Z,2.25
2023-02-03T10:21:06.969Z,1.95
2023-02-03T10:25:20.701Z,1.98
2023-02-03T10:29:32.915Z,2.58
2023-02-03T10:33:35.683Z,3.33
2023-02-03T10:37:45.044Z,2.40
2023-02-03T10:41:47.682Z,2.17
2023-02-03T10:45:51.568Z,2.40
2023-02-03T10:49:57.493Z,2.55
2023-02-03T10:54:01.757Z,2.03
2023-02-03T10:58:15.314Z,2.20
2023-02-03T11:02:29.420Z,2.05
2023-02-03T11:06:33.035Z,1.95
2023-02-03T11:18:48.765Z,1.70
2023-02-03T11:22:51.342Z,1.27
2023-02-03T11:26:58.189Z,1.10
2023-02-03T11:31:00.763Z,0.88
2023-02-03T11:35:14.995Z,1.37
2023-02-03T11:39:21.586Z,1.40
2023-02-03T11:43:24.082Z,1.38
2023-02-03T11:47:26.601Z,1.08
2023-02-03T11:51:39.636Z,0.70
2023-02-03T11:55:53.255Z,1.10
2023-02-03T12:04:35.410Z,1.15
2023-02-03T12:08:54.399Z,1.13
2023-02-03T12:13:06.580Z,1.08
2023-02-03T12:17:32.028Z,1.10
2023-02-03T12:21:44.431Z,1.00
2023-02-03T12:26:01.728Z,1.10
2023-02-03T12:30:13.220Z,1.02
2023-02-03T12:34:20.241Z,1.20
2023-02-03T12:38:31.471Z,1.65
2023-02-03T12:42:41.967Z,1.48
2023-02-03T12:46:47.607Z,1.58
2023-02-03T12:50:52.865Z,1.40
2023-02-03T12:55:07.490Z,1.98
2023-02-03T12:59:16.675Z,2.13
2023-02-03T13:03:27.793Z,2.03
2023-02-03T13:07:37.033Z,1.55
2023-02-03T13:11:46.836Z,2.03
2023-02-03T13:15:53.528Z,1.65
2023-02-03T13:19:59.244Z,2.22
2023-02-03T13:24:04.180Z,1.80
2023-02-03T13:28:19.964Z,2.20
2023-02-03T13:32:40.249Z,2.50
2023-02-03T13:37:06.208Z,1.83
2023-02-03T13:41:19.175Z,1.95
2023-02-03T13:45:28.310Z,2.65
2023-02-03T13:49:34.577Z,1.73
2023-02-03T13:53:39.988Z,2.65
2023-02-03T13:57:42.496Z,2.25
2023-02-03T14:01:45.777Z,2.42
2023-02-03T14:05:52.092Z,1.88
2023-02-03T14:10:21.233Z,2.40
2023-02-03T14:14:44.203Z,2.25
2023-02-03T14:18:47.289Z,2.83
2023-02-03T14:22:53.178Z,1.73
2023-02-03T14:26:58.333Z,1.50
2023-02-03T14:31:20.244Z,2.13
2023-02-03T14:35:26.611Z,2.33
2023-02-03T14:40:07.424Z,1.80
2023-02-03T14:44:23.434Z,2.10
2023-02-03T14:48:41.565Z,1.95
2023-02-03T14:52:59.327Z,2.00
2023-02-03T14:57:24.630Z,1.85
2023-02-03T15:01:49.032Z,2.55
2023-02-03T15:05:54.437Z,1.95
2023-02-03T15:09:57.299Z,2.45
2023-02-03T15:18:32.814Z,2.53
2023-02-03T15:22:40.135Z,2.40
2023-02-03T15:26:47.516Z,2.17
2023-02-03T15:30:55.599Z,2.58
2023-02-03T15:35:01.718Z,2.42
2023-02-03T15:39:15.303Z,2.63
2023-02-03T15:43:22.108Z,1.90
2023-02-03T15:47:31.643Z,2.15
2023-02-03T15:51:43.829Z,1.88
2023-02-03T15:55:48.655Z,1.88
2023-02-03T15:59:55.802Z,2.17
2023-02-03T16:03:59.974Z,1.98
2023-02-03T16:08:42.496Z,2.40
2023-02-03T16:12:46.345Z,1.80
2023-02-03T16:17:04.547Z,1.67
2023-02-03T16:21:24.321Z,2.72
2023-02-03T16:25:29.357Z,2.25
2023-02-03T16:29:55.051Z,1.40
2023-02-03T16:34:14.895Z,1.50
2023-02-03T16:38:36.938Z,2.00
2023-02-03T16:42:58.777Z,1.65
2023-02-03T16:47:20.767Z,2.60
2023-02-03T16:51:23.282Z,2.47
2023-02-03T16:55:25.876Z,1.65
2023-02-03T16:59:28.367Z,2.17
2023-02-03T17:03:34.470Z,1.63
2023-02-03T17:07:36.923Z,2.63
2023-02-03T17:11:40.317Z,1.48
2023-02-03T17:19:47.436Z,1.60
2023-02-03T17:23:49.996Z,2.42
2023-02-03T17:27:52.523Z,2.23
2023-02-03T17:31:55.095Z,1.85
2023-02-03T17:36:05.284Z,2.00
2023-02-03T17:57:11.795Z,2.43
2023-02-03T18:01:18.043Z,2.67
2023-02-03T18:05:20.567Z,1.88
2023-02-03T18:09:24.360Z,2.22
2023-02-03T18:13:27.581Z,3.10
2023-02-03T18:17:30.103Z,1.88
2023-02-03T18:21:33.164Z,1.73
2023-02-03T18:25:37.160Z,1.50
2023-02-03T18:29:40.843Z,1.95
2023-02-03T18:33:46.090Z,1.92
2023-02-03T18:37:48.569Z,3.42
2023-02-03T18:42:17.198Z,3.05
2023-02-03T18:46:21.958Z,4.32
2023-02-03T18:50:25.529Z,2.65
2023-02-03T19:02:35.705Z,2.05
2023-02-03T19:06:45.185Z,1.30
2023-02-03T19:10:48.004Z,1.73
2023-02-03T19:14:51.819Z,1.75
2023-02-03T19:18:54.495Z,2.40
2023-02-03T19:22:56.980Z,2.20
2023-02-03T19:26:59.503Z,2.05
2023-02-03T19:31:08.589Z,2.45
2023-02-03T19:35:12.637Z,2.92
2023-02-03T19:39:15.621Z,2.33
2023-02-03T19:43:18.109Z,2.90
2023-02-03T19:47:21.923Z,2.45
2023-02-03T19:51:24.931Z,2.60
2023-02-03T19:55:30.613Z,2.53
2023-02-03T19:59:33.123Z,2.65
2023-02-03T20:03:36.980Z,2.28
2023-02-03T20:07:39.497Z,2.20
2023-02-03T20:11:41.994Z,2.25
2023-02-03T20:15:46.819Z,2.38
2023-02-03T20:19:50.728Z,3.38
2023-02-03T20:23:54.194Z,2.10
2023-02-03T20:31:59.986Z,3.23
2023-02-03T20:36:04.106Z,2.40
2023-02-03T20:40:15.796Z,2.03
2023-02-03T20:44:18.316Z,2.53
2023-02-03T20:48:23.939Z,1.80
2023-02-03T20:52:27.736Z,2.53
2023-02-03T20:56:30.222Z,2.28
2023-02-03T21:00:32.914Z,1.55
2023-02-03T21:04:53.162Z,2.45
2023-02-03T21:09:02.529Z,1.42
2023-02-03T21:13:20.778Z,2.10
2023-02-03T21:17:25.705Z,2.22
2023-02-03T21:21:30.454Z,1.95
2023-02-03T21:25:35.272Z,2.38
2023-02-03T21:29:37.797Z,2.03
2023-02-03T21:33:43.605Z,2.58
2023-02-03T21:37:46.189Z,2.10
2023-02-03T21:41:50.032Z,3.00
2023-02-03T21:45:52.592Z,2.30
2023-02-03T21:49:55.082Z,1.67
2023-02-03T21:54:00.195Z,2.08
2023-02-03T21:58:19.701Z,2.05
